createdAt,value
2023-03-05T00:00:25.320Z,7.90
2023-03-05T00:03:00.534Z,10.50
2023-03-05T00:05:36.509Z,7.28
2023-03-05T00:08:14.056Z,9.23
2023-03-05T00:10:49.446Z,6.97
2023-03-05T00:13:24.654Z,9.23
2023-03-05T00:16:00.723Z,7.35
2023-03-05T00:18:35.938Z,11.68
2023-03-05T00:21:21.947Z,7.03
2023-03-05T00:24:00.544Z,9.15
2023-03-05T00:26:37.486Z,7.22
2023-03-05T00:29:13.651Z,7.65
2023-03-05T00:31:48.902Z,9.10
2023-03-05T00:34:25.185Z,7.45
2023-03-05T00:37:01.148Z,6.85
2023-03-05T00:39:38.902Z,8.35
2023-03-05T00:42:14.233Z,9.10
2023-03-05T00:44:49.442Z,6.38
2023-03-05T00:47:25.410Z,9.00
2023-03-05T00:50:00.703Z,6.88
2023-03-05T00:52:36.046Z,8.45
2023-03-05T00:55:14.415Z,6.30
2023-03-05T00:57:50.741Z,7.90
2023-03-05T01:00:26.427Z,8.75
2023-03-05T01:03:01.582Z,8.13
2023-03-05T01:05:36.739Z,5.70
2023-03-05T01:08:12.942Z,7.15
2023-03-05T01:10:50.568Z,7.85
2023-03-05T01:13:25.930Z,4.78
2023-03-05T01:16:04.263Z,10.15
2023-03-05T01:18:40.593Z,7.32
2023-03-05T01:21:18.396Z,6.50
2023-03-05T01:23:53.765Z,5.53
2023-03-05T01:26:31.434Z,14.18
2023-03-05T01:29:07.695Z,9.50
2023-03-05T01:31:43.009Z,8.23
2023-03-05T01:34:20.733Z,12.27
2023-03-05T01:36:58.054Z,12.38
2023-03-05T01:39:35.975Z,12.82
2023-03-05T01:42:14.590Z,10.20
2023-03-05T01:45:05.153Z,11.55
2023-03-05T01:47:40.561Z,9.82
2023-03-05T01:50:18.584Z,12.30
2023-03-05T01:52:57.766Z,8.52
2023-03-05T01:55:35.026Z,11.15
2023-03-05T01:58:16.259Z,7.95
2023-03-05T02:00:53.124Z,12.13
2023-03-05T02:03:29.844Z,9.07
2023-03-05T02:06:05.105Z,8.13
2023-03-05T02:08:41.037Z,5.93
2023-03-05T02:11:16.791Z,8.40
2023-03-05T02:13:54.376Z,6.47
2023-03-05T02:16:30.891Z,7.28
2023-03-05T02:19:06.801Z,7.65
2023-03-05T02:21:46.238Z,7.82
2023-03-05T02:24:36.245Z,7.65
2023-03-05T02:27:12.863Z,7.22
2023-03-05T02:29:51.433Z,6.70
2023-03-05T02:32:27.337Z,7.10
2023-03-05T02:35:02.577Z,8.60
2023-03-05T02:37:39.938Z,8.32
2023-03-05T02:40:18.448Z,8.35
2023-03-05T02:42:54.962Z,11.02
2023-03-05T02:45:33.314Z,7.60
2023-03-05T02:48:09.359Z,8.68
2023-03-05T02:50:45.950Z,7.25
2023-03-05T02:53:24.380Z,7.55
2023-03-05T02:55:59.591Z,6.93
2023-03-05T02:58:35.506Z,8.05
2023-03-05T03:01:12.955Z,9.35
2023-03-05T03:03:48.957Z,7.07
2023-03-05T03:06:24.278Z,8.25
2023-03-05T03:09:01.881Z,8.25
2023-03-05T03:11:38.116Z,9.02
2023-03-05T03:14:13.980Z,4.97
2023-03-05T03:16:49.867Z,9.50
2023-03-05T03:19:25.649Z,9.75
2023-03-05T03:22:01.129Z,5.38
2023-03-05T03:24:40.000Z,6.10
2023-03-05T03:27:15.390Z,8.25
2023-03-05T03:29:51.198Z,9.35
2023-03-05T03:32:27.713Z,8.95
2023-03-05T03:35:04.646Z,7.57
2023-03-05T03:37:39.801Z,9.60
2023-03-05T03:40:18.013Z,8.27
2023-03-05T03:42:53.663Z,9.23
2023-03-05T03:45:29.301Z,7.35
2023-03-05T03:48:05.117Z,6.50
2023-03-05T03:50:44.275Z,6.28
2023-03-05T03:53:19.726Z,10.73
2023-03-05T03:56:02.132Z,12.85
2023-03-05T03:58:37.390Z,11.82
2023-03-05T04:01:12.548Z,8.32
2023-03-05T04:03:48.983Z,7.50
2023-03-05T04:06:25.844Z,9.95
2023-03-05T04:09:01.117Z,8.05
2023-03-05T04:11:37.990Z,9.18
2023-03-05T04:14:13.638Z,12.43
2023-03-05T04:16:49.254Z,7.88
2023-03-05T04:19:24.957Z,7.65
2023-03-05T04:22:00.334Z,11.18
2023-03-05T04:24:39.911Z,9.30
2023-03-05T04:27:17.587Z,10.63
2023-03-05T04:29:56.078Z,7.30
2023-03-05T04:32:31.545Z,11.93
2023-03-05T04:35:08.249Z,10.48
2023-03-05T04:37:43.755Z,11.10
2023-03-05T04:40:19.753Z,11.38
2023-03-05T04:42:57.026Z,11.20
2023-03-05T04:45:33.798Z,10.52
2023-03-05T04:48:09.097Z,7.00
2023-03-05T04:50:45.328Z,9.10
2023-03-05T04:53:20.615Z,10.27
2023-03-05T04:55:59.992Z,9.20
2023-03-05T04:58:37.344Z,11.52
2023-03-05T05:01:12.741Z,12.65
2023-03-05T05:03:47.965Z,12.15
2023-03-05T05:06:25.687Z,9.75
2023-03-05T05:09:01.095Z,10.82
2023-03-05T05:11:36.264Z,9.63
2023-03-05T05:14:13.379Z,9.80
2023-03-05T05:16:49.284Z,11.10
2023-03-05T05:19:24.702Z,10.18
2023-03-05T05:22:01.046Z,12.95
2023-03-05T05:24:36.727Z,11.70
2023-03-05T05:27:13.073Z,7.53
2023-03-05T05:29:51.996Z,8.80
2023-03-05T05:32:28.238Z,10.98
2023-03-05T05:35:03.930Z,9.98
2023-03-05T05:37:42.099Z,11.60
2023-03-05T05:40:17.981Z,10.35
2023-03-05T05:42:53.302Z,12.43
2023-03-05T05:45:34.223Z,10.82
2023-03-05T05:48:10.767Z,11.77
2023-03-05T05:50:46.117Z,11.88
2023-03-05T05:53:22.123Z,14.27
2023-03-05T05:55:58.063Z,9.80
2023-03-05T05:58:33.844Z,13.45
2023-03-05T06:01:18.076Z,13.18
2023-03-05T06:03:54.050Z,11.25
2023-03-05T06:06:31.394Z,14.10
2023-03-05T06:09:07.962Z,12.52
2023-03-05T06:11:44.041Z,11.15
2023-03-05T06:14:19.376Z,12.35
2023-03-05T06:16:56.997Z,11.82
2023-03-05T06:19:32.973Z,11.30
2023-03-05T06:22:08.345Z,10.18
2023-03-05T06:24:44.617Z,12.68
2023-03-05T06:27:20.130Z,14.85
2023-03-05T06:29:59.092Z,11.35
2023-03-05T06:32:36.567Z,11.43
2023-03-05T06:35:12.707Z,11.57
2023-03-05T06:37:48.418Z,11.52
2023-03-05T06:40:25.310Z,14.02
2023-03-05T06:43:00.659Z,13.65
2023-03-05T06:45:39.446Z,11.30
2023-03-05T06:48:21.024Z,14.88
2023-03-05T06:51:00.262Z,13.50
2023-03-05T06:53:35.482Z,11.57
2023-03-05T06:56:11.868Z,13.98
2023-03-05T06:58:49.284Z,15.90
2023-03-05T07:01:25.979Z,11.63
2023-03-05T07:04:04.624Z,13.55
2023-03-05T07:06:42.066Z,14.77
2023-03-05T07:09:21.630Z,12.48
2023-03-05T07:11:57.856Z,13.32
2023-03-05T07:14:32.279Z,16.42
2023-03-05T07:17:06.585Z,15.75
2023-03-05T07:19:44.737Z,9.57
2023-03-05T07:22:20.829Z,16.45
2023-03-05T07:24:56.113Z,15.10
2023-03-05T07:27:32.269Z,14.02
2023-03-05T07:30:08.394Z,14.05
2023-03-05T07:32:44.697Z,16.38
2023-03-05T07:35:21.873Z,12.13
2023-03-05T07:37:58.546Z,16.77
2023-03-05T07:40:37.403Z,14.35
2023-03-05T07:43:14.042Z,13.93
2023-03-05T07:45:50.575Z,14.60
2023-03-05T07:48:26.202Z,14.57
2023-03-05T07:51:10.526Z,14.68
2023-03-05T07:53:46.808Z,17.42
2023-03-05T07:56:27.226Z,16.65
2023-03-05T07:59:03.399Z,13.38
2023-03-05T08:01:39.331Z,16.30
2023-03-05T08:04:15.335Z,17.25
2023-03-05T08:06:52.658Z,11.85
2023-03-05T08:09:28.209Z,19.38
2023-03-05T08:12:04.876Z,13.57
2023-03-05T08:14:42.596Z,15.05
2023-03-05T08:17:17.809Z,14.25
2023-03-05T08:19:53.415Z,13.32
2023-03-05T08:22:31.386Z,17.27
2023-03-05T08:25:08.038Z,13.32
2023-03-05T08:27:45.548Z,14.32
2023-03-05T08:30:24.152Z,16.90
2023-03-05T08:33:00.359Z,16.10
2023-03-05T08:35:36.325Z,13.85
2023-03-05T08:38:13.658Z,11.93
2023-03-05T08:40:48.844Z,16.60
2023-03-05T08:43:24.333Z,19.55
2023-03-05T08:46:00.367Z,17.77
2023-03-05T08:48:36.209Z,16.17
2023-03-05T08:51:12.383Z,12.65
2023-03-05T08:53:50.791Z,17.60
2023-03-05T08:56:27.859Z,15.07
2023-03-05T08:59:03.516Z,15.85
2023-03-05T09:01:39.512Z,15.50
2023-03-05T09:04:15.703Z,18.15
2023-03-05T09:06:51.950Z,14.43
2023-03-05T09:09:31.680Z,14.43
2023-03-05T09:12:07.441Z,16.10
2023-03-05T09:14:43.643Z,13.85
2023-03-05T09:17:20.135Z,19.02
2023-03-05T09:19:55.559Z,17.13
2023-03-05T09:22:30.742Z,18.77
2023-03-05T09:25:08.237Z,17.50
2023-03-05T09:27:45.445Z,17.85
2023-03-05T09:30:21.096Z,19.33
2023-03-05T09:32:56.734Z,19.63
2023-03-05T09:35:33.131Z,22.95
2023-03-05T09:38:09.294Z,21.08
2023-03-05T09:40:53.838Z,30.27
2023-03-05T09:43:41.841Z,27.27
2023-03-05T09:46:28.217Z,19.80
2023-03-05T09:49:15.637Z,18.40
2023-03-05T09:51:54.692Z,23.65
2023-03-05T09:54:33.681Z,21.60
2023-03-05T09:57:11.171Z,19.35
2023-03-05T09:59:54.852Z,17.40
2023-03-05T10:02:32.817Z,24.17
2023-03-05T10:05:17.949Z,18.08
2023-03-05T10:07:58.896Z,20.08
2023-03-05T10:10:44.612Z,18.92
2023-03-05T10:13:27.554Z,18.45
2023-03-05T10:16:10.975Z,16.58
2023-03-05T10:18:54.182Z,21.00
2023-03-05T10:21:36.645Z,27.10
2023-03-05T10:24:21.422Z,19.52
2023-03-05T10:27:04.294Z,21.38
2023-03-05T10:30:01.244Z,22.50
2023-03-05T10:32:45.270Z,16.73
2023-03-05T10:35:42.478Z,17.98
2023-03-05T10:38:45.401Z,22.73
2023-03-05T10:41:30.605Z,20.48
2023-03-05T10:44:13.588Z,21.58
2023-03-05T10:46:53.541Z,23.50
2023-03-05T10:49:34.327Z,20.13
2023-03-05T10:52:13.438Z,22.80
2023-03-05T10:54:48.812Z,17.83
2023-03-05T10:57:25.908Z,18.88
2023-03-05T11:00:06.044Z,15.05
2023-03-05T11:02:59.633Z,22.52
2023-03-05T11:05:53.549Z,24.05
2023-03-05T11:08:32.207Z,19.73
2023-03-05T11:11:19.355Z,24.70
2023-03-05T11:14:04.244Z,21.13
2023-03-05T11:16:51.761Z,23.10
2023-03-05T11:19:35.004Z,20.77
2023-03-05T11:22:20.705Z,23.92
2023-03-05T11:25:23.866Z,17.55
2023-03-05T11:28:01.928Z,23.63
2023-03-05T11:30:38.898Z,19.05
2023-03-05T11:33:19.221Z,26.17
2023-03-05T11:35:58.412Z,22.65
2023-03-05T11:38:35.096Z,20.85
2023-03-05T11:41:10.495Z,19.90
2023-03-05T11:43:48.065Z,21.48
2023-03-05T11:46:25.235Z,22.27
2023-03-05T11:49:03.182Z,13.35
2023-03-05T11:51:45.913Z,22.10
2023-03-05T11:54:27.247Z,24.20
2023-03-05T11:57:03.526Z,18.88
2023-03-05T11:59:43.461Z,17.73
2023-03-05T12:02:24.357Z,18.83
2023-03-05T12:05:01.103Z,20.27
2023-03-05T12:07:43.808Z,15.48
2023-03-05T12:10:23.416Z,20.15
2023-03-05T12:13:06.846Z,17.15
2023-03-05T12:15:51.644Z,24.00
2023-03-05T12:18:42.381Z,17.52
2023-03-05T12:21:29.195Z,16.30
2023-03-05T12:24:07.832Z,23.65
2023-03-05T12:27:11.302Z,20.60
2023-03-05T12:29:52.406Z,18.52
2023-03-05T12:33:05.672Z,25.27
2023-03-05T12:35:42.854Z,20.98
2023-03-05T12:38:33.940Z,25.70
2023-03-05T12:41:40.535Z,18.65
2023-03-05T12:44:27.464Z,19.13
2023-03-05T12:47:25.292Z,22.00
2023-03-05T12:50:02.697Z,20.83
2023-03-05T12:52:41.386Z,22.33
2023-03-05T12:55:27.845Z,19.67
2023-03-05T12:58:09.436Z,18.90
2023-03-05T13:00:47.544Z,19.30
2023-03-05T13:03:25.435Z,18.38
2023-03-05T13:06:02.490Z,22.17
2023-03-05T13:08:39.560Z,15.98
2023-03-05T13:11:21.402Z,14.23
2023-03-05T13:13:59.809Z,19.05
2023-03-05T13:16:41.129Z,16.67
2023-03-05T13:19:22.451Z,20.33
2023-03-05T13:22:08.114Z,15.25
2023-03-05T13:24:44.251Z,20.38
2023-03-05T13:27:35.626Z,14.10
2023-03-05T13:30:30.432Z,21.33
2023-03-05T13:33:07.718Z,18.67
2023-03-05T13:35:51.921Z,20.40
2023-03-05T13:38:33.211Z,18.92
2023-03-05T13:41:11.182Z,17.83
2023-03-05T13:43:50.841Z,17.75
2023-03-05T13:46:35.140Z,17.00
2023-03-05T13:49:28.862Z,13.65
2023-03-05T13:52:04.656Z,15.93
2023-03-05T13:54:40.877Z,17.48
2023-03-05T13:57:39.095Z,11.85
2023-03-05T14:00:36.778Z,13.95
2023-03-05T14:03:26.599Z,13.90
2023-03-05T14:06:02.523Z,15.32
2023-03-05T14:08:38.008Z,11.70
2023-03-05T14:11:21.740Z,13.82
2023-03-05T14:14:09.135Z,14.80
2023-03-05T14:16:44.711Z,8.75
2023-03-05T14:19:42.687Z,12.07
2023-03-05T14:22:36.104Z,11.55
2023-03-05T14:25:29.784Z,15.15
2023-03-05T14:28:05.068Z,9.80
2023-03-05T14:30:49.139Z,10.52
2023-03-05T14:33:29.702Z,11.75
2023-03-05T14:36:07.362Z,9.88
2023-03-05T14:38:47.018Z,7.53
2023-03-05T14:41:40.214Z,8.68
2023-03-05T14:44:18.801Z,10.25
2023-03-05T14:46:55.478Z,8.57
2023-03-05T14:49:30.964Z,9.77
2023-03-05T14:52:08.783Z,7.43
2023-03-05T14:54:44.649Z,5.60
2023-03-05T14:57:23.393Z,10.63
2023-03-05T14:59:59.568Z,10.50
2023-03-05T15:02:34.914Z,12.57
2023-03-05T15:05:11.545Z,8.32
2023-03-05T15:07:50.000Z,7.32
2023-03-05T15:10:29.949Z,8.48
2023-03-05T15:13:06.134Z,6.32
2023-03-05T15:15:43.391Z,9.50
2023-03-05T15:18:19.943Z,7.03
2023-03-05T15:20:56.745Z,7.57
2023-03-05T15:23:38.245Z,10.57
2023-03-05T15:26:17.204Z,12.82
2023-03-05T15:28:52.420Z,10.02
2023-03-05T15:31:28.317Z,13.18
2023-03-05T15:34:03.691Z,14.98
2023-03-05T15:36:39.535Z,11.10
2023-03-05T15:39:17.322Z,14.02
2023-03-05T15:41:53.079Z,15.82
2023-03-05T15:44:28.711Z,15.65
2023-03-05T15:47:04.313Z,13.48
2023-03-05T15:49:39.579Z,10.57
2023-03-05T15:52:15.973Z,13.52
2023-03-05T15:54:53.641Z,15.73
2023-03-05T15:57:29.535Z,11.07
2023-03-05T16:00:05.016Z,12.10
2023-03-05T16:02:44.716Z,14.25
2023-03-05T16:05:20.367Z,14.98
2023-03-05T16:07:58.013Z,11.73
2023-03-05T16:10:37.492Z,11.52
2023-03-05T16:13:15.834Z,15.25
2023-03-05T16:15:54.506Z,12.38
2023-03-05T16:18:31.560Z,11.20
2023-03-05T16:21:06.866Z,10.77
2023-03-05T16:23:42.585Z,11.88
2023-03-05T16:26:20.957Z,11.00
2023-03-05T16:28:56.695Z,10.10
2023-03-05T16:31:35.913Z,11.27
2023-03-05T16:34:11.533Z,7.57
2023-03-05T16:36:52.789Z,11.07
2023-03-05T16:39:29.203Z,7.53
2023-03-05T16:42:07.148Z,7.38
2023-03-05T16:44:43.232Z,10.43
2023-03-05T16:47:18.546Z,7.53
2023-03-05T16:49:54.468Z,8.50
2023-03-05T16:52:29.751Z,8.85
2023-03-05T16:55:05.568Z,11.10
2023-03-05T16:57:43.614Z,6.95
2023-03-05T17:00:20.427Z,9.63
2023-03-05T17:02:55.608Z,6.38
2023-03-05T17:05:31.549Z,8.43
2023-03-05T17:08:07.459Z,7.88
2023-03-05T17:10:43.538Z,7.88
2023-03-05T17:13:21.251Z,8.38
2023-03-05T17:15:57.672Z,10.73
2023-03-05T17:18:33.208Z,10.32
2023-03-05T17:21:09.919Z,10.05
2023-03-05T17:23:45.912Z,7.70
2023-03-05T17:26:23.452Z,9.23
2023-03-05T17:29:00.908Z,11.07
2023-03-05T17:31:36.729Z,7.60
2023-03-05T17:34:12.070Z,5.75
2023-03-05T17:36:48.243Z,6.63
2023-03-05T17:39:23.750Z,5.95
2023-03-05T17:41:59.713Z,7.90
2023-03-05T17:44:37.514Z,5.60
2023-03-05T17:47:13.266Z,5.70
2023-03-05T17:49:48.535Z,7.78
2023-03-05T17:52:25.131Z,7.72
2023-03-05T17:55:00.347Z,6.82
2023-03-05T17:57:36.099Z,5.32
2023-03-05T18:00:18.817Z,5.25
2023-03-05T18:02:55.365Z,7.53
2023-03-05T18:05:31.361Z,7.72
2023-03-05T18:08:07.237Z,6.40
2023-03-05T18:10:42.496Z,7.05
2023-03-05T18:13:18.407Z,7.15
2023-03-05T18:15:56.363Z,8.10
2023-03-05T18:18:32.778Z,6.45
2023-03-05T18:21:08.001Z,10.75
2023-03-05T18:23:43.838Z,5.97
2023-03-05T18:26:18.993Z,8.18
2023-03-05T18:28:54.693Z,7.32
2023-03-05T18:31:32.685Z,7.18
2023-03-05T18:34:08.610Z,7.20
2023-03-05T18:36:44.095Z,7.28
2023-03-05T18:39:20.311Z,6.70
2023-03-05T18:41:55.560Z,6.10
2023-03-05T18:44:31.577Z,7.10
2023-03-05T18:47:09.415Z,7.18
2023-03-05T18:49:45.231Z,6.55
2023-03-05T18:52:20.597Z,6.18
2023-03-05T18:54:56.399Z,4.82
2023-03-05T18:57:31.585Z,6.80
2023-03-05T19:00:07.743Z,7.00
2023-03-05T19:02:45.701Z,5.18
2023-03-05T19:05:22.473Z,6.63
2023-03-05T19:07:58.435Z,9.18
2023-03-05T19:10:35.804Z,11.38
2023-03-05T19:13:24.608Z,8.32
2023-03-05T19:16:02.602Z,12.65
2023-03-05T19:18:45.513Z,13.85
2023-03-05T19:21:21.310Z,12.00
2023-03-05T19:23:56.530Z,16.52
2023-03-05T19:26:32.042Z,17.67
2023-03-05T19:29:07.216Z,16.48
2023-03-05T19:31:42.672Z,13.07
2023-03-05T19:34:20.909Z,14.55
2023-03-05T19:36:56.723Z,14.35
2023-03-05T19:39:32.076Z,16.08
2023-03-05T19:42:07.873Z,19.48
2023-03-05T19:44:43.081Z,18.25
2023-03-05T19:47:18.885Z,17.75
2023-03-05T19:49:56.613Z,18.48
2023-03-05T19:52:32.078Z,20.25
2023-03-05T19:55:07.462Z,17.40
2023-03-05T19:57:43.100Z,17.17
2023-03-05T20:00:19.137Z,16.33
2023-03-05T20:02:54.857Z,21.42
2023-03-05T20:05:32.836Z,25.63
2023-03-05T20:08:08.585Z,20.75
2023-03-05T20:10:43.706Z,19.33
2023-03-05T20:13:19.192Z,29.52
2023-03-05T20:15:54.372Z,20.83
2023-03-05T20:18:30.414Z,28.17
2023-03-05T20:21:07.999Z,28.38
2023-03-05T20:23:43.881Z,22.90
2023-03-05T20:26:19.120Z,24.73
2023-03-05T20:28:55.261Z,21.92
2023-03-05T20:31:31.713Z,24.98
2023-03-05T20:34:07.414Z,22.95
2023-03-05T20:36:45.284Z,22.33
2023-03-05T20:39:20.956Z,24.05
2023-03-05T20:41:57.768Z,22.85
2023-03-05T20:44:34.456Z,25.15
2023-03-05T20:47:25.261Z,27.13
2023-03-05T20:50:01.429Z,20.65
2023-03-05T20:52:39.166Z,21.15
2023-03-05T20:55:16.186Z,21.05
2023-03-05T20:57:51.435Z,25.52
2023-03-05T21:00:27.282Z,24.15
2023-03-05T21:03:02.730Z,21.42
2023-03-05T21:05:39.643Z,15.65
2023-03-05T21:08:17.401Z,24.52
2023-03-05T21:10:53.093Z,23.35
2023-03-05T21:13:28.919Z,21.75
2023-03-05T21:16:04.526Z,16.50
2023-03-05T21:18:39.673Z,21.25
2023-03-05T21:21:19.060Z,17.88
2023-03-05T21:23:57.143Z,23.45
2023-03-05T21:26:32.727Z,16.42
2023-03-05T21:29:07.882Z,21.63
2023-03-05T21:31:43.630Z,19.40
2023-03-05T21:34:18.852Z,26.17
2023-03-05T21:36:54.490Z,21.23
2023-03-05T21:39:32.457Z,26.80
2023-03-05T21:42:08.339Z,26.83
2023-03-05T21:44:43.460Z,23.98
2023-03-05T21:47:18.933Z,22.48
2023-03-05T21:49:55.545Z,27.02
2023-03-05T21:52:31.666Z,22.17
2023-03-05T21:55:10.197Z,23.70
2023-03-05T21:57:45.724Z,28.40
2023-03-05T22:00:24.339Z,29.75
2023-03-05T22:03:00.344Z,26.05
2023-03-05T22:05:35.475Z,18.95
2023-03-05T22:08:11.128Z,18.77
2023-03-05T22:10:49.802Z,22.10
2023-03-05T22:13:25.516Z,15.00
2023-03-05T22:16:01.711Z,13.63
2023-03-05T22:18:38.145Z,13.75
2023-03-05T22:21:22.792Z,16.35
2023-03-05T22:23:58.723Z,11.25
2023-03-05T22:26:43.019Z,12.65
2023-03-05T22:29:19.130Z,11.18
2023-03-05T22:31:54.412Z,16.40
2023-03-05T22:34:30.552Z,13.73
2023-03-05T22:37:05.865Z,12.52
2023-03-05T22:39:44.033Z,11.57
2023-03-05T22:42:21.757Z,13.07
2023-03-05T22:45:01.923Z,12.10
2023-03-05T22:47:37.082Z,12.52
2023-03-05T22:50:16.265Z,12.18
2023-03-05T22:52:52.010Z,10.73
2023-03-05T22:55:27.898Z,10.30
2023-03-05T22:58:05.526Z,11.02
2023-03-05T23:00:41.323Z,6.18
2023-03-05T23:03:16.797Z,5.75
2023-03-05T23:05:52.466Z,5.20
2023-03-05T23:08:27.760Z,5.78
2023-03-05T23:11:03.465Z,5.28
2023-03-05T23:13:43.358Z,4.22
2023-03-05T23:16:19.026Z,4.00
2023-03-05T23:18:54.226Z,3.97
2023-03-05T23:21:33.175Z,3.65
2023-03-05T23:24:08.145Z,4.70
2023-03-05T23:26:43.825Z,3.35
2023-03-05T23:29:21.453Z,3.47
2023-03-05T23:31:59.522Z,6.53
2023-03-05T23:34:35.420Z,4.70
2023-03-05T23:37:11.460Z,5.80
2023-03-05T23:39:46.738Z,5.22
2023-03-05T23:42:22.451Z,5.28
2023-03-05T23:45:00.229Z,3.60
2023-03-05T23:47:36.387Z,4.80
2023-03-05T23:50:15.488Z,4.53
2023-03-05T23:52:51.702Z,3.30
2023-03-05T23:55:28.760Z,5.57
2023-03-05T23:58:05.140Z,5.45
